• Join FlightAware (Why Join?)
  • Login
  • US Flag 
09:48PM EDT


 

Airport Tracker/Info


-or-


 

Live Flight TrackerFlight Track Log ✈ N143DE ✈ 10-May-2013 ✈ KGPT - KTRI

Flight Track Log - Related Links

Times and Time Zones

All times are in EDT time to prevent confusion due to time zone crossing. See the N143DE flight status page for this flight to view local times or setup timezone preferences in your user account.

Time Position Orientation Groundspeed Altitude Reporting Facility
EDT Latitude Longitude Course Direction KTS MPH feet Rate Location/Type
09:51PM 30.3972 -89.0264 41° Northeast 130 150 2,500  Level Houston Center
09:52PM 30.4197 -88.9797 61° Northeast 154 177 4,200 1,740 Climbing Houston Center
09:53PM 30.4433 -88.9278 62° Northeast 168 193 6,100 1,740 Climbing Houston Center
09:54PM 30.4694 -88.8733 61° Northeast 181 208 7,800 1,860 Climbing Houston Center
09:55PM 30.5028 -88.8069 60° Northeast 193 222 9,900 1,800 Climbing Houston Center
09:56PM 31.4114 -88.0540 41° Northeast  Level Estimated
09:56PM 30.5286 -88.7494 62° Northeast 197 227 11,600  Level Houston Center
09:57PM 30.5553 -88.6944 61° Northeast 198 228 13,300 1,380 Climbing Houston Center
09:58PM 30.5836 -88.6392 59° Northeast 198 228 14,500 1,320 Climbing Houston Center
09:59PM 30.6122 -88.5808 60° Northeast 206 237 16,000 1,260 Climbing Houston Center
10:00PM 30.6419 -88.5231 59° Northeast 208 239 17,200 1,020 Climbing Houston Center
10:01PM 30.6700 -88.4611 62° Northeast 215 247 18,200 960 Climbing Houston Center
10:02PM 30.7036 -88.4033 56° Northeast 218 251 19,200 900 Climbing Houston Center
10:03PM 30.7356 -88.3436 58° Northeast 219 252 20,100 840 Climbing Houston Center
10:04PM 30.7739 -88.2886 51° Northeast 220 253 21,000 900 Climbing Houston Center
10:05PM 30.8225 -88.2256 48° Northeast 221 254 22,000 840 Climbing Houston Center
10:06PM 30.8642 -88.1722 48° Northeast 223 257 22,800 720 Climbing Houston Center
10:07PM 30.9050 -88.1181 49° Northeast 225 259 23,500 660 Climbing Houston Center
10:08PM 30.9486 -88.0611 48° Northeast 226 260 24,200 600 Climbing Houston Center
10:09PM 30.9900 -88.0056 49° Northeast 227 261 24,800 420 Climbing Houston Center
10:10PM 31.0328 -87.9494 48° Northeast 232 267 25,100 120 Climbing Houston Center
10:11PM 31.0800 -87.8833 50° Northeast 260 299 25,100  Level Houston Center
10:12PM 31.1297 -87.8158 49° Northeast 273 314 25,100  Level Houston Center
10:13PM 31.1825 -87.7453 49° Northeast 286 329 25,100  Level Houston Center
10:14PM 31.2419 -87.6675 48° Northeast 287 330 25,100  Level Houston Center
10:15PM 31.2936 -87.5953 50° Northeast 290 334 25,100  Level Houston Center
10:16PM 31.3467 -87.5228 49° Northeast 292 336 25,100  Level Houston Center
10:18PM 31.3994 -87.4503 50° Northeast 293 337 25,100  Level Houston Center
10:18PM 31.4250 -87.4214 44° Northeast 285 328 25,100  Level Atlanta Center
10:19PM 31.4789 -87.3503 48° Northeast 285 328 25,100  Level Atlanta Center
10:20PM 31.5331 -87.2792 48° Northeast 285 328 25,100  Level Atlanta Center
10:21PM 31.5850 -87.2056 50° Northeast 285 328 25,100  Level Atlanta Center
10:22PM 31.6411 -87.1367 46° Northeast 285 328 25,100  Level Atlanta Center
10:23PM 31.6947 -87.0800 42° Northeast 285 328 25,100  Level Atlanta Center
10:24PM 31.7586 -87.0236 37° Northeast 285 328 25,100  Level Atlanta Center
10:25PM 31.8225 -86.9694 36° Northeast 285 328 25,100  Level Atlanta Center
10:26PM 31.8864 -86.9103 38° Northeast 285 328 25,100  Level Atlanta Center
10:27PM 31.9506 -86.8536 37° Northeast 280 322 25,100  Level Atlanta Center
10:28PM 32.0122 -86.7944 39° Northeast 280 322 25,100  Level Atlanta Center
10:29PM 32.0761 -86.7375 37° Northeast 280 322 25,100  Level Atlanta Center
10:30PM 32.1464 -86.6783 35° Northeast 280 322 25,100  Level Atlanta Center
10:31PM 32.2122 -86.6214 36° Northeast 280 322 25,100  Level Atlanta Center
10:32PM 32.2781 -86.5619 37° Northeast 285 328 25,100  Level Atlanta Center
10:33PM 32.3400 -86.5022 39° Northeast 285 328 25,100  Level Atlanta Center
10:34PM 32.4036 -86.4425 38° Northeast 285 328 25,100  Level Atlanta Center
10:35PM 32.4656 -86.3750 43° Northeast 280 322 25,100  Level Atlanta Center
10:36PM 32.5250 -86.3225 37° Northeast 295 339 25,100  Level Atlanta Center
10:37PM 32.5908 -86.2600 39° Northeast 300 345 25,100  Level Atlanta Center
10:38PM 32.6608 -86.1953 38° Northeast 300 345 25,100  Level Atlanta Center
10:39PM 32.7244 -86.1375 37° Northeast 300 345 25,100  Level Atlanta Center
10:40PM 32.7900 -86.0772 38° Northeast 295 339 25,100  Level Atlanta Center
10:41PM 32.8517 -86.0169 39° Northeast 290 334 25,100  Level Atlanta Center
10:42PM 32.9153 -85.9564 39° Northeast 285 328 25,100  Level Atlanta Center
10:43PM 32.9789 -85.8961 38° Northeast 285 328 25,100  Level Atlanta Center
10:44PM 33.0403 -85.8378 39° Northeast 285 328 25,100  Level Atlanta Center
10:45PM 33.1036 -85.7797 38° Northeast 280 322 25,100  Level Atlanta Center
10:46PM 33.1650 -85.7214 38° Northeast 280 322 25,100  Level Atlanta Center
10:47PM 33.2283 -85.6631 38° Northeast 280 322 25,100  Level Atlanta Center
10:48PM 33.2897 -85.5994 41° Northeast 280 322 25,100  Level Atlanta Center
10:49PM 33.3531 -85.5433 36° Northeast 280 322 25,100  Level Atlanta Center
10:50PM 33.4164 -85.4847 38° Northeast 280 322 25,100  Level Atlanta Center
10:51PM 33.4797 -85.4261 38° Northeast 280 322 25,100  Level Atlanta Center
10:52PM 33.5431 -85.3622 40° Northeast 286 329 25,100  Level Atlanta Center
10:53PM 33.6061 -85.3033 38° Northeast 286 329 25,100  Level Atlanta Center
10:54PM 33.6672 -85.2419 40° Northeast 280 322 25,100  Level Atlanta Center
10:55PM 33.7242 -85.1903 37° Northeast 280 322 25,100  Level Atlanta Center
10:56PM 33.7853 -85.1286 40° Northeast 280 322 25,100  Level Atlanta Center
10:57PM 33.8464 -85.0692 39° Northeast 280 322 25,100  Level Atlanta Center
10:58PM 33.9094 -85.0100 38° Northeast 280 322 25,100  Level Atlanta Center
10:59PM 33.9725 -84.9506 38° Northeast 280 322 25,100  Level Atlanta Center
11:00PM 34.0378 -84.8836 40° Northeast 280 322 25,100  Level Atlanta Center
11:01PM 34.1006 -84.8239 38° Northeast 280 322 25,100  Level Atlanta Center
11:02PM 34.1636 -84.7594 40° Northeast 286 329 25,100  Level Atlanta Center
11:03PM 34.2267 -84.6994 38° Northeast 286 329 25,100  Level Atlanta Center
11:04PM 34.2875 -84.6372 40° Northeast 281 323 25,100  Level Atlanta Center
11:05PM 34.3503 -84.5772 38° Northeast 281 323 25,100  Level Atlanta Center
11:06PM 34.4028 -84.5222 41° Northeast 281 323 25,100  Level Atlanta Center
11:07PM 34.4678 -84.4619 37° Northeast 286 329 25,100  Level Atlanta Center
11:08PM 34.5306 -84.3994 39° Northeast 286 329 25,100  Level Atlanta Center
11:09PM 34.5911 -84.3392 39° Northeast 280 322 25,100  Level Atlanta Center
11:10PM 34.6539 -84.2761 40° Northeast 280 322 25,100  Level Atlanta Center
11:11PM 34.7167 -84.2183 37° Northeast 280 322 25,100  Level Atlanta Center
11:12PM 34.7792 -84.1525 41° Northeast 280 322 25,100  Level Atlanta Center
11:13PM 34.8419 -84.0919 38° Northeast 280 322 25,100  Level Atlanta Center
11:14PM 34.9044 -84.0286 40° Northeast 280 322 25,100  Level Atlanta Center
11:15PM 34.9631 -83.9678 40° Northeast 280 322 25,100  Level Atlanta Center
11:16PM 35.0256 -83.9069 39° Northeast 280 322 25,100  Level Atlanta Center
11:17PM 35.0839 -83.8458 41° Northeast 280 322 25,100  Level Atlanta Center
11:18PM 35.1422 -83.7847 41° Northeast 280 322 25,100  Level Atlanta Center
11:19PM 35.2047 -83.7261 37° Northeast 280 322 25,100  Level Atlanta Center
11:20PM 35.2628 -83.6647 41° Northeast 280 322 25,100 -300 Level Atlanta Center
11:21PM 35.3253 -83.6036 39° Northeast 280 322 24,500 -480 Descending Atlanta Center
11:22PM 35.3917 -83.5394 38° Northeast 285 328 24,200 -240 Descending Atlanta Center
11:23PM 35.4519 -83.4753 41° Northeast 285 328 24,100 -660 Descending Atlanta Center
11:24PM 35.5122 -83.4086 42° Northeast 285 328 22,900 -1,320 Descending Atlanta Center
11:25PM 35.5786 -83.3417 39° Northeast 290 334 21,500 -1,320 Descending Atlanta Center
11:26PM 35.6469 -83.2722 40° Northeast 298 343 20,300 -720 Descending Atlanta Center
11:27PM 35.7008 -83.2153 41° Northeast 298 343 20,100 -120 Descending Atlanta Center
11:28PM 35.7569 -83.1558 41° Northeast 278 320 20,100 -240 Level Atlanta Center
11:29PM 35.8128 -83.0989 40° Northeast 266 306 19,700 -1,080 Descending Atlanta Center
11:30PM 35.8728 -83.0342 41° Northeast 266 306 18,000 -1,680 Descending Atlanta Center
11:31PM 35.9369 -82.9719 38° Northeast 284 327 16,400 -1,500 Descending Atlanta Center
11:32PM 35.9947 -82.9147 39° Northeast 279 321 15,000 -1,500 Descending Atlanta Center
11:33PM 36.0483 -82.8547 42° Northeast 267 307 13,500 -1,740 Descending Atlanta Center
11:34PM 36.1061 -82.7975 39° Northeast 261 300 11,600 -1,920 Descending Atlanta Center
11:35PM 36.1619 -82.7400 40° Northeast 261 300 9,700 -1,800 Descending Atlanta Center
11:36PM 36.2156 -82.6825 41° Northeast 256 295 8,100 -1,620 Descending Atlanta Center
11:37PM 36.2711 -82.6250 40° Northeast 251 289 6,500 -1,500 Descending Atlanta Center
11:38PM 36.3228 -82.5775 37° Northeast 246 283 5,100 -1,320 Descending Atlanta Center
11:39PM 36.3722 -82.5250 41° Northeast 236 272 3,900 -1,200 Descending Atlanta Center
11:41PM 36.4597 -82.4069 39° Northeast  Level FlightAware Approximate
11:48PM 36.4667 -82.4000 39° Northeast  Level FlightAware Approximate
11:49PM 36.4752 -82.4074 39° Northeast  Level Estimated
11:50PM 36.4752 -82.4074 39° Northeast  Level Estimated